Francisco Badaro, Brazil
Current Conditions -  °F | °C
As of 2:00 PM on Thursday 27 Nov 2014 (Local Time) from SBMK Reporting Station
Scattered Clouds Scattered Clouds  
Wind Chill: 88°   Ceiling: Unl
Heat Index: 89°   Visibility: 6mi
Dew Point: 64°   Wind: 6mph
Humidity: 46%   Direction: NA
Pressure: 29.94"   Gusts: 18mph
Location:  16.99°S, 42.35°W
Report Text: SBMK 271600Z VRB05G16KT 9999 SCT045 31/18 Q1014
Loading
Personal Weather Stations






























Interactive Weather Map New forecast layout! Learn more

10-Day Weather Forecast

Advertisements
Track Severe Weather on mobile